TimeEDT,TemperatureF,Dew PointF,Humidity,Sea Level PressureIn,VisibilityMPH,Wind Direction,Wind SpeedMPH,Gust SpeedMPH,PrecipitationIn,Events,Conditions,WindDirDegrees,DateUTC
12:15 AM,19.4,6.8,58,30.00,10.0,NNE,6.9,-,N/A,,Overcast,30,2013-03-16 04:15:00
12:35 AM,19.4,8.6,63,30.00,10.0,North,5.8,-,N/A,,Overcast,10,2013-03-16 04:35:00
12:55 AM,19.4,8.6,63,29.99,10.0,NNE,6.9,-,N/A,,Overcast,20,2013-03-16 04:55:00
1:55 AM,19.4,6.8,58,29.99,10.0,North,6.9,-,N/A,,Overcast,10,2013-03-16 05:55:00
2:15 AM,19.4,6.8,58,29.98,10.0,NNE,5.8,-,N/A,,Overcast,20,2013-03-16 06:15:00
2:35 AM,19.4,8.6,63,29.98,10.0,North,9.2,-,N/A,,Overcast,10,2013-03-16 06:35:00
2:55 AM,17.6,8.6,68,29.98,8.0,North,5.8,-,N/A,,Overcast,10,2013-03-16 06:55:00
3:15 AM,17.6,10.4,73,29.97,5.0,NNE,6.9,-,N/A,,Overcast,30,2013-03-16 07:15:00
3:35 AM,17.6,10.4,73,29.96,4.0,North,5.8,-,N/A,,Overcast,10,2013-03-16 07:35:00
3:55 AM,17.6,10.4,73,29.96,4.0,North,6.9,-,N/A,,Overcast,10,2013-03-16 07:55:00
4:15 AM,17.6,10.4,73,29.95,6.0,North,5.8,-,N/A,,Overcast,10,2013-03-16 08:15:00
4:35 AM,17.6,10.4,73,29.95,5.0,North,4.6,-,N/A,,Overcast,360,2013-03-16 08:35:00
4:55 AM,17.6,10.4,73,29.95,5.0,North,4.6,-,N/A,,Overcast,350,2013-03-16 08:55:00
5:15 AM,17.6,10.4,73,29.94,5.0,North,5.8,-,N/A,,Overcast,350,2013-03-16 09:15:00
5:35 AM,17.6,10.4,73,29.95,5.0,North,4.6,-,N/A,,Overcast,350,2013-03-16 09:35:00
5:55 AM,17.6,10.4,73,29.95,3.0,North,3.5,-,N/A,,Overcast,350,2013-03-16 09:55:00
6:15 AM,17.6,10.4,73,29.96,5.0,North,3.5,-,N/A,,Mostly Cloudy,350,2013-03-16 10:15:00
6:35 AM,17.6,10.4,73,29.96,2.5,North,5.8,-,N/A,,Overcast,350,2013-03-16 10:35:00
6:55 AM,17.6,10.4,73,29.96,5.0,North,4.6,-,N/A,,Mostly Cloudy,350,2013-03-16 10:55:00
7:15 AM,15.8,10.4,79,29.97,10.0,NNW,4.6,-,N/A,,Scattered Clouds,340,2013-03-16 11:15:00
7:35 AM,15.8,12.2,86,29.97,10.0,NNW,4.6,-,N/A,,Clear,340,2013-03-16 11:35:00
7:55 AM,15.8,10.4,79,29.97,10.0,North,4.6,-,N/A,,Clear,350,2013-03-16 11:55:00
8:15 AM,14.0,8.6,79,29.97,10.0,North,4.6,-,N/A,,Clear,350,2013-03-16 12:15:00
8:55 AM,15.8,10.4,79,29.98,10.0,North,5.8,-,N/A,,Partly Cloudy,10,2013-03-16 12:55:00
9:15 AM,15.8,10.4,79,29.99,10.0,NNE,5.8,-,N/A,,Clear,20,2013-03-16 13:15:00
9:35 AM,17.6,8.6,68,30.00,10.0,NNE,8.1,-,N/A,,Clear,20,2013-03-16 13:35:00
9:55 AM,17.6,8.6,68,30.00,10.0,NE,10.4,-,N/A,,Clear,40,2013-03-16 13:55:00
10:15 AM,17.6,8.6,68,30.01,10.0,NE,9.2,-,N/A,,Clear,40,2013-03-16 14:15:00
10:35 AM,17.6,8.6,68,30.01,10.0,NE,6.9,-,N/A,,Clear,50,2013-03-16 14:35:00
10:55 AM,17.6,8.6,68,30.02,10.0,NE,6.9,-,N/A,,Clear,50,2013-03-16 14:55:00
11:15 AM,19.4,6.8,58,30.02,10.0,ENE,6.9,-,N/A,,Clear,60,2013-03-16 15:15:00
11:35 AM,19.4,6.8,58,30.02,10.0,NE,8.1,-,N/A,,Clear,40,2013-03-16 15:35:00
11:55 AM,19.4,5.0,54,30.03,10.0,East,6.9,-,N/A,,Mostly Cloudy,80,2013-03-16 15:55:00
12:15 PM,21.2,6.8,54,30.03,10.0,Calm,Calm,-,N/A,,Overcast,0,2013-03-16 16:15:00
12:35 PM,19.4,6.8,58,30.02,10.0,ENE,3.5,-,N/A,,Overcast,70,2013-03-16 16:35:00
12:55 PM,21.2,6.8,54,30.03,10.0,North,5.8,-,N/A,,Overcast,360,2013-03-16 16:55:00
1:15 PM,21.2,5.0,50,30.02,10.0,North,5.8,-,N/A,,Mostly Cloudy,350,2013-03-16 17:15:00
1:35 PM,21.2,6.8,54,30.02,10.0,NW,4.6,-,N/A,,Overcast,310,2013-03-16 17:35:00
1:55 PM,21.2,6.8,54,30.02,10.0,East,5.8,-,N/A,,Overcast,90,2013-03-16 17:55:00
2:15 PM,21.2,6.8,54,30.01,10.0,SE,4.6,-,N/A,,Overcast,140,2013-03-16 18:15:00
2:35 PM,23.0,8.6,54,30.01,10.0,WSW,4.6,-,N/A,,Overcast,240,2013-03-16 18:35:00
2:55 PM,24.8,8.6,50,30.01,10.0,West,6.9,-,N/A,,Overcast,260,2013-03-16 18:55:00
3:15 PM,24.8,8.6,50,29.99,10.0,SE,10.4,-,N/A,,Overcast,140,2013-03-16 19:15:00
3:35 PM,24.8,10.4,54,29.99,10.0,SSE,8.1,-,N/A,,Overcast,160,2013-03-16 19:35:00
3:55 PM,26.6,8.6,47,29.98,10.0,West,9.2,16.1,N/A,,Overcast,280,2013-03-16 19:55:00
4:15 PM,24.8,12.2,59,29.98,10.0,South,9.2,-,N/A,,Overcast,170,2013-03-16 20:15:00
4:35 PM,24.8,10.4,54,29.97,10.0,SE,9.2,-,N/A,,Overcast,140,2013-03-16 20:35:00
4:55 PM,24.8,10.4,54,29.97,10.0,South,11.5,-,N/A,,Overcast,170,2013-03-16 20:55:00
5:15 PM,24.8,10.4,54,29.98,10.0,South,9.2,-,N/A,,Overcast,170,2013-03-16 21:15:00
5:35 PM,24.8,12.2,59,29.98,10.0,South,9.2,-,N/A,,Overcast,170,2013-03-16 21:35:00
5:55 PM,24.8,10.4,54,29.98,10.0,South,6.9,-,N/A,,Overcast,180,2013-03-16 21:55:00
6:15 PM,24.8,10.4,54,29.98,10.0,South,8.1,-,N/A,,Overcast,170,2013-03-16 22:15:00
6:35 PM,24.8,12.2,59,29.98,10.0,South,9.2,-,N/A,,Overcast,180,2013-03-16 22:35:00
6:55 PM,24.8,12.2,59,29.97,10.0,South,6.9,-,N/A,,Overcast,170,2013-03-16 22:55:00
7:15 PM,24.8,12.2,59,29.97,10.0,South,6.9,-,N/A,,Overcast,180,2013-03-16 23:15:00
7:35 PM,24.8,12.2,59,29.97,10.0,SSW,3.5,-,N/A,,Overcast,210,2013-03-16 23:35:00
7:55 PM,24.8,14.0,64,29.97,10.0,Calm,Calm,-,N/A,,Overcast,0,2013-03-16 23:55:00
8:15 PM,24.8,12.2,59,29.97,10.0,Calm,Calm,-,N/A,,Overcast,0,2013-03-17 00:15:00
8:35 PM,24.8,12.2,59,29.98,10.0,NW,4.6,-,N/A,,Overcast,310,2013-03-17 00:35:00
8:55 PM,24.8,8.6,50,29.98,10.0,WNW,8.1,-,N/A,,Overcast,300,2013-03-17 00:55:00
9:15 PM,24.8,8.6,50,29.99,10.0,WNW,9.2,-,N/A,,Overcast,300,2013-03-17 01:15:00
9:35 PM,24.8,8.6,50,30.00,10.0,WNW,6.9,-,N/A,,Overcast,300,2013-03-17 01:35:00
9:55 PM,24.8,8.6,50,30.01,10.0,WNW,8.1,-,N/A,,Overcast,300,2013-03-17 01:55:00
10:15 PM,24.8,8.6,50,30.02,10.0,WNW,16.1,23.0,N/A,,Overcast,300,2013-03-17 02:15:00
10:35 PM,24.8,10.4,54,30.05,10.0,NW,13.8,23.0,N/A,,Overcast,320,2013-03-17 02:35:00
10:55 PM,23.0,8.6,54,30.05,10.0,WNW,12.7,20.7,N/A,,Overcast,300,2013-03-17 02:55:00
11:15 PM,23.0,6.8,50,30.07,10.0,NW,11.5,21.9,N/A,,Overcast,310,2013-03-17 03:15:00
11:35 PM,21.2,3.2,46,30.07,10.0,WNW,15.0,26.5,N/A,,Mostly Cloudy,300,2013-03-17 03:35:00
11:55 PM,21.2,5.0,50,30.08,10.0,NW,15.0,24.2,N/A,,Partly Cloudy,310,2013-03-17 03:55:00